Apodaca, New Mexico
Current Conditions -  °F | °C
As of 9:15 AM on Sunday 25 Jan 2015 (Local Time) from KSKX Reporting Station
Clear Clear  
Wind Chill: -1°   Ceiling: Unl
Heat Index: -1°   Visibility: 10mi
Dew Point: -8°   Wind: 0mph
Humidity: 60%   Direction: NA
Pressure: 30.34"   Gusts: NA
Location:  36.1644°N, 105.863°W
Report Text: KSKX 251615Z AUTO 00000KT 10SM CLR M01/M08 A3034 RMK AO1
Loading
Personal Weather Stations






























Interactive Weather Map New forecast layout! Learn more

10-Day Weather Forecast

Advertisements
Track Severe Weather on mobile